Time;durP1;ratioP1;P1;durP2;ratioP2;P2;SDS_P1;SDS_P2;PMS_P1;PMS_P2;Temp;Humidity;BMP_temperature;BMP_pressure;BME280_temperature;BME280_humidity;BME280_pressure;Samples;Min_cycle;Max_cycle;Signal;HPM_P1;HPM_P2
2021/05/31 00:01:50;;;;;;;6.20;4.22;;;6.70;99.90;;;;;;5035534;28;20025;-84
2021/05/31 00:04:16;;;;;;;5.75;4.75;;;6.60;99.90;;;;;;5035601;28;20531;-85
2021/05/31 00:07:03;;;;;;;6.80;4.40;;;6.70;99.90;;;;;;5036436;28;20025;-84
2021/05/31 00:09:30;;;;;;;4.88;4.22;;;6.60;99.90;;;;;;5035548;28;20061;-86
2021/05/31 00:11:55;;;;;;;6.38;4.82;;;6.60;99.90;;;;;;5036257;28;20052;-86
2021/05/31 00:14:21;;;;;;;5.15;3.88;;;6.70;99.90;;;;;;5035476;28;20061;-84
2021/05/31 00:16:47;;;;;;;6.00;4.70;;;6.80;99.90;;;;;;5035514;28;20537;-85
2021/05/31 00:19:14;;;;;;;4.97;4.35;;;6.70;99.90;;;;;;5036453;28;20036;-84
2021/05/31 00:21:40;;;;;;;5.75;4.50;;;6.80;99.90;;;;;;5036406;28;20021;-86
2021/05/31 00:24:07;;;;;;;4.30;3.90;;;6.60;99.90;;;;;;5035028;28;20025;-86
2021/05/31 00:26:32;;;;;;;5.85;4.13;;;6.60;99.90;;;;;;5036392;28;20496;-85
2021/05/31 00:28:58;;;;;;;7.85;4.55;;;6.60;99.90;;;;;;5036784;28;20029;-85
2021/05/31 00:31:24;;;;;;;5.25;4.13;;;6.60;99.90;;;;;;5056584;28;20029;-86
2021/05/31 00:33:50;;;;;;;4.97;4.25;;;6.60;99.90;;;;;;5056193;28;20032;-86
2021/05/31 00:36:17;;;;;;;7.32;4.63;;;6.50;99.90;;;;;;5056510;28;20109;-85
2021/05/31 00:38:43;;;;;;;4.72;4.20;;;6.50;99.90;;;;;;5038467;28;20025;-85
2021/05/31 00:41:09;;;;;;;6.15;3.88;;;6.50;99.90;;;;;;5055965;28;20135;-84
2021/05/31 00:43:35;;;;;;;7.10;4.15;;;6.50;99.90;;;;;;5038009;28;20029;-85
2021/05/31 00:46:03;;;;;;;5.82;4.30;;;6.60;99.90;;;;;;5037733;28;20055;-85
2021/05/31 00:48:29;;;;;;;4.82;4.15;;;6.60;99.90;;;;;;5037997;28;20029;-84
2021/05/31 00:50:59;;;;;;;4.65;4.13;;;6.50;99.90;;;;;;5055973;28;20032;-82
2021/05/31 00:53:26;;;;;;;6.97;4.72;;;6.50;99.90;;;;;;5055648;28;20033;-85
2021/05/31 00:55:52;;;;;;;4.60;4.03;;;6.50;99.90;;;;;;5037874;28;20116;-85
2021/05/31 00:58:17;;;;;;;5.15;4.50;;;6.60;99.90;;;;;;5055408;28;20060;-87
2021/05/31 01:00:46;;;;;;;5.28;4.38;;;6.50;99.90;;;;;;5055670;28;20083;-85
2021/05/31 01:03:12;;;;;;;4.78;4.22;;;6.40;99.90;;;;;;5055525;28;20064;-84
2021/05/31 01:05:39;;;;;;;5.40;4.28;;;6.30;99.90;;;;;;5055791;28;20029;-85
2021/05/31 01:08:11;;;;;;;6.82;4.40;;;6.20;99.90;;;;;;5037769;28;20033;-84
2021/05/31 01:10:56;;;;;;;5.00;4.47;;;6.20;99.90;;;;;;5055511;28;20056;-86
2021/05/31 01:13:40;;;;;;;5.15;3.72;;;6.20;99.90;;;;;;5055773;28;20838;-86
2021/05/31 01:16:09;;;;;;;4.45;4.05;;;6.30;99.90;;;;;;5055401;28;20021;-84
2021/05/31 01:18:44;;;;;;;4.72;4.20;;;6.20;99.90;;;;;;5037761;28;20067;-86
2021/05/31 01:21:42;;;;;;;10.20;5.35;;;6.20;99.90;;;;;;5037712;28;20048;-84
2021/05/31 01:24:42;;;;;;;5.97;3.85;;;6.20;99.90;;;;;;5037728;28;20029;-83
2021/05/31 01:27:22;;;;;;;4.25;3.50;;;6.20;99.90;;;;;;5037559;28;20025;-85
2021/05/31 01:29:54;;;;;;;3.70;3.30;;;6.10;99.90;;;;;;5034379;28;20401;-87
2021/05/31 01:32:36;;;;;;;5.72;3.08;;;6.10;99.90;;;;;;5035481;28;20057;-86
2021/05/31 01:35:06;;;;;;;4.72;3.45;;;6.10;99.90;;;;;;5034510;28;20033;-85
2021/05/31 01:37:35;;;;;;;3.50;2.85;;;6.10;99.90;;;;;;5035609;28;20064;-86
2021/05/31 01:40:05;;;;;;;3.70;3.30;;;6.10;99.90;;;;;;5034333;28;20026;-85
2021/05/31 01:42:32;;;;;;;4.85;3.58;;;6.00;99.90;;;;;;5034378;28;20080;-85
2021/05/31 01:44:59;;;;;;;3.40;2.95;;;6.10;99.90;;;;;;5034356;28;20030;-83
2021/05/31 01:47:26;;;;;;;3.70;2.88;;;6.00;99.90;;;;;;5035710;28;20025;-83
2021/05/31 01:49:53;;;;;;;3.47;2.92;;;6.10;99.90;;;;;;5035675;28;20026;-85
2021/05/31 01:52:22;;;;;;;3.10;2.58;;;5.90;99.90;;;;;;5034188;28;20021;-84
2021/05/31 01:54:53;;;;;;;4.22;2.60;;;6.00;99.90;;;;;;5036251;28;20025;-85
2021/05/31 01:57:21;;;;;;;7.97;3.35;;;6.00;99.90;;;;;;5037848;28;20030;-82
2021/05/31 01:59:47;;;;;;;4.22;3.30;;;6.20;99.90;;;;;;5037724;28;20059;-85
2021/05/31 02:02:13;;;;;;;5.15;3.20;;;6.20;99.90;;;;;;5037859;28;20030;-85
2021/05/31 02:04:39;;;;;;;3.85;3.25;;;6.10;99.90;;;;;;5039557;28;20104;-80
2021/05/31 02:07:05;;;;;;;5.15;3.42;;;6.20;99.90;;;;;;5038868;28;20115;-85
2021/05/31 02:09:31;;;;;;;4.10;3.60;;;6.30;99.90;;;;;;5038954;28;20025;-85
2021/05/31 02:12:07;;;;;;;4.22;3.80;;;6.20;99.90;;;;;;5037792;28;20453;-84
2021/05/31 02:14:48;;;;;;;5.35;3.75;;;6.10;99.90;;;;;;5037654;28;20037;-83
2021/05/31 02:17:34;;;;;;;7.35;3.30;;;5.90;99.90;;;;;;5037190;28;20111;-85
2021/05/31 02:20:05;;;;;;;4.82;4.05;;;5.90;99.90;;;;;;5038539;28;20038;-85
2021/05/31 02:22:34;;;;;;;3.85;3.50;;;5.80;99.90;;;;;;5038126;28;20100;-85
2021/05/31 02:25:01;;;;;;;5.85;4.63;;;5.80;99.90;;;;;;5038546;28;20025;-85
2021/05/31 02:27:28;;;;;;;4.60;4.10;;;5.60;99.90;;;;;;5036993;28;20469;-83
2021/05/31 02:29:54;;;;;;;4.90;4.40;;;5.60;99.90;;;;;;5036741;28;20051;-83
2021/05/31 02:32:20;;;;;;;6.18;3.95;;;5.70;99.90;;;;;;5037010;28;20041;-84
2021/05/31 02:34:45;;;;;;;5.00;4.40;;;5.60;99.90;;;;;;5037345;28;20065;-84
2021/05/31 02:37:13;;;;;;;5.60;4.47;;;5.70;99.90;;;;;;5036967;28;20025;-85
2021/05/31 02:39:39;;;;;;;5.20;4.30;;;5.70;99.90;;;;;;5036794;28;20477;-84
2021/05/31 02:42:05;;;;;;;6.10;4.57;;;5.60;99.90;;;;;;5036611;28;20032;-82
2021/05/31 02:44:31;;;;;;;5.40;4.40;;;5.70;99.90;;;;;;5037530;28;20025;-84
2021/05/31 02:46:57;;;;;;;5.13;4.45;;;5.80;99.90;;;;;;5036589;28;20033;-84
2021/05/31 02:49:23;;;;;;;6.72;4.35;;;5.80;99.90;;;;;;5037788;28;20026;-84
2021/05/31 02:51:49;;;;;;;6.13;4.60;;;5.80;99.90;;;;;;5037151;28;20037;-86
2021/05/31 02:54:15;;;;;;;4.97;4.43;;;5.80;99.90;;;;;;5036522;28;20033;-84
2021/05/31 02:56:41;;;;;;;8.00;4.30;;;5.90;99.90;;;;;;5036597;28;20389;-86
2021/05/31 02:59:07;;;;;;;6.60;4.75;;;5.90;99.90;;;;;;5036428;28;20477;-84
2021/05/31 03:01:32;;;;;;;6.95;4.82;;;5.90;99.90;;;;;;5037974;28;20048;-85
2021/05/31 03:03:58;;;;;;;4.82;4.20;;;5.90;99.90;;;;;;5036873;28;20385;-85
2021/05/31 03:06:24;;;;;;;5.97;4.57;;;5.90;99.90;;;;;;5037475;28;20029;-84
2021/05/31 03:08:49;;;;;;;6.55;4.78;;;6.00;99.90;;;;;;5036476;28;20030;-85
2021/05/31 03:11:15;;;;;;;6.40;4.25;;;6.00;99.90;;;;;;5036979;28;20029;-83
2021/05/31 03:13:40;;;;;;;5.80;4.03;;;6.20;99.90;;;;;;5036192;28;20040;-84
2021/05/31 03:16:06;;;;;;;4.68;4.10;;;6.20;99.90;;;;;;5036808;28;20025;-84
2021/05/31 03:18:32;;;;;;;5.07;3.83;;;6.20;99.90;;;;;;5037082;28;20026;-83
2021/05/31 03:20:58;;;;;;;4.43;3.80;;;6.20;99.90;;;;;;5035799;28;20097;-86
2021/05/31 03:23:23;;;;;;;5.05;3.92;;;6.10;99.90;;;;;;5036084;28;20039;-85
2021/05/31 03:25:49;;;;;;;5.55;4.03;;;6.20;99.90;;;;;;5037059;28;20029;-85
2021/05/31 03:28:14;;;;;;;4.60;3.97;;;6.30;99.90;;;;;;5036151;28;20038;-86
2021/05/31 03:30:40;;;;;;;5.93;4.75;;;6.40;99.90;;;;;;5052199;28;20049;-85
2021/05/31 03:33:06;;;;;;;5.88;4.15;;;6.40;99.90;;;;;;5039603;28;20037;-83
2021/05/31 03:35:31;;;;;;;6.28;4.10;;;6.40;99.90;;;;;;5057171;28;20028;-85
2021/05/31 03:37:57;;;;;;;6.60;3.97;;;6.40;99.90;;;;;;5039393;28;20053;-86
2021/05/31 03:40:23;;;;;;;4.80;4.28;;;6.30;99.90;;;;;;5057080;28;20448;-86
2021/05/31 03:42:54;;;;;;;5.68;4.82;;;6.40;99.90;;;;;;5039324;28;20028;-85
2021/05/31 03:45:20;;;;;;;8.50;4.25;;;6.40;99.90;;;;;;5039191;28;20025;-85
2021/05/31 03:47:47;;;;;;;6.55;4.45;;;6.60;99.90;;;;;;5039129;28;20029;-85
2021/05/31 03:50:12;;;;;;;5.95;4.03;;;6.60;99.90;;;;;;5039463;28;20028;-85
2021/05/31 03:52:38;;;;;;;6.60;4.60;;;6.50;99.90;;;;;;5038897;28;20029;-84
2021/05/31 03:55:06;;;;;;;6.50;5.00;;;6.60;99.90;;;;;;5056659;28;20024;-82
2021/05/31 03:57:33;;;;;;;5.93;4.63;;;6.70;99.90;;;;;;5038835;28;20111;-84
2021/05/31 03:59:59;;;;;;;13.13;4.57;;;6.70;99.90;;;;;;5039046;28;20506;-82
2021/05/31 04:02:25;;;;;;;6.20;4.45;;;6.80;99.90;;;;;;5056748;28;20021;-86
2021/05/31 04:04:53;;;;;;;6.53;4.57;;;6.80;99.90;;;;;;5056909;28;20020;-82
2021/05/31 04:12:51;;;;;;;9.18;4.22;;;6.80;99.90;;;;;;5056679;28;20040;-86
2021/05/31 04:15:16;;;;;;;138.38;82.75;;;6.80;99.90;;;;;;5056151;28;20460;-87
2021/05/31 04:17:42;;;;;;;12.40;8.90;;;6.80;99.90;;;;;;5037618;28;20033;-84
2021/05/31 04:20:09;;;;;;;10.60;9.60;;;6.80;99.90;;;;;;5055994;28;20025;-84
2021/05/31 04:22:34;;;;;;;7.38;6.57;;;6.90;99.90;;;;;;5038481;28;20025;-80
2021/05/31 04:25:00;;;;;;;6.80;4.53;;;6.90;99.90;;;;;;5056096;28;20048;-86
2021/05/31 04:27:26;;;;;;;5.47;4.30;;;7.00;99.90;;;;;;5038349;28;20070;-82
2021/05/31 04:29:51;;;;;;;5.47;4.80;;;7.00;99.90;;;;;;5055587;28;20045;-84
2021/05/31 04:32:18;;;;;;;4.70;4.07;;;7.00;99.90;;;;;;5057239;28;20025;-81
2021/05/31 04:34:45;;;;;;;4.22;3.80;;;9.60;99.90;;;;;;5037837;28;20029;-86
2021/05/31 04:37:10;;;;;;;6.35;4.13;;;10.80;99.90;;;;;;5041225;28;20028;-88
2021/05/31 04:39:37;;;;;;;6.15;4.28;;;11.20;99.90;;;;;;5041795;28;20112;-86
2021/05/31 04:42:06;;;;;;;4.55;3.70;;;11.80;99.90;;;;;;5037806;28;20120;-86
2021/05/31 04:44:32;;;;;;;6.40;4.22;;;12.20;99.80;;;;;;5037841;28;20480;-85
2021/05/31 04:46:58;;;;;;;5.88;4.32;;;11.80;98.70;;;;;;5037633;28;20123;-81
2021/05/31 04:49:23;;;;;;;5.97;3.78;;;11.80;99.90;;;;;;5038212;28;20053;-85
2021/05/31 04:51:49;;;;;;;6.18;3.90;;;11.00;99.90;;;;;;5037019;28;20036;-87
2021/05/31 04:54:15;;;;;;;5.85;3.65;;;11.20;99.90;;;;;;5055153;28;20043;-84
2021/05/31 04:56:41;;;;;;;5.28;3.08;;;11.80;99.90;;;;;;5037207;28;20053;-85
2021/05/31 04:59:07;;;;;;;4.15;3.75;;;12.20;99.30;;;;;;5054969;28;20027;-85
2021/05/31 05:01:34;;;;;;;5.55;3.40;;;12.00;97.90;;;;;;5054357;28;20025;-87
2021/05/31 05:04:00;;;;;;;4.53;3.83;;;11.70;99.90;;;;;;5036820;28;20067;-85
2021/05/31 05:06:25;;;;;;;4.90;3.60;;;11.70;99.20;;;;;;5036629;28;20052;-82
2021/05/31 05:08:53;;;;;;;4.40;2.92;;;11.80;98.70;;;;;;5054299;28;20032;-84
2021/05/31 05:11:23;;;;;;;4.28;2.78;;;11.80;99.90;;;;;;5036552;28;20021;-85
2021/05/31 05:13:50;;;;;;;5.55;2.55;;;12.50;99.10;;;;;;5036353;28;20064;-85
2021/05/31 05:16:16;;;;;;;7.22;3.53;;;12.50;98.40;;;;;;5036376;28;20408;-82
2021/05/31 05:18:47;;;;;;;7.07;2.90;;;13.00;97.50;;;;;;5036094;28;20060;-86
2021/05/31 05:21:13;;;;;;;4.05;2.50;;;13.00;97.00;;;;;;5036204;28;20025;-87
2021/05/31 05:23:39;;;;;;;6.65;2.67;;;13.50;96.80;;;;;;5036027;28;20029;-84
2021/05/31 05:26:05;;;;;;;5.55;3.33;;;13.30;96.80;;;;;;5036070;28;20349;-82
2021/05/31 05:28:32;;;;;;;7.18;4.47;;;13.10;97.10;;;;;;5036881;28;20035;-83
2021/05/31 05:31:02;;;;;;;7.18;3.92;;;13.10;97.50;;;;;;5036593;28;20382;-85
2021/05/31 05:33:28;;;;;;;5.60;3.80;;;13.30;97.70;;;;;;5036715;28;20034;-86
2021/05/31 05:35:58;;;;;;;4.40;3.10;;;13.40;97.20;;;;;;5037699;28;20081;-81
2021/05/31 05:41:05;;;;;;;4.43;3.17;;;13.40;97.50;;;;;;5037342;28;20032;-86
2021/05/31 05:46:25;;;;;;;4.40;3.97;;;13.70;96.80;;;;;;5037366;28;20024;-84
2021/05/31 05:48:52;;;;;;;4.72;3.70;;;13.60;96.30;;;;;;5036076;28;20492;-81
2021/05/31 05:51:18;;;;;;;3.35;2.60;;;13.70;96.20;;;;;;5036207;28;20474;-83
2021/05/31 05:53:46;;;;;;;7.07;2.95;;;13.90;96.10;;;;;;5035948;28;20040;-80
2021/05/31 05:56:20;;;;;;;3.75;2.42;;;14.10;96.70;;;;;;5035675;28;20479;-81
2021/05/31 05:58:47;;;;;;;6.60;2.60;;;14.00;96.40;;;;;;5035397;28;20032;-83
2021/05/31 06:01:15;;;;;;;3.80;2.75;;;13.30;98.00;;;;;;5035451;28;20022;-84
2021/05/31 06:03:41;;;;;;;5.40;2.85;;;12.90;99.10;;;;;;5035678;28;20427;-82
2021/05/31 06:06:07;;;;;;;3.50;2.70;;;12.70;99.40;;;;;;5035396;28;20021;-84
2021/05/31 06:08:34;;;;;;;4.97;2.95;;;12.60;98.00;;;;;;5035443;28;20021;-82
2021/05/31 06:11:00;;;;;;;6.28;2.72;;;12.60;98.50;;;;;;5035210;28;20026;-82
2021/05/31 06:13:26;;;;;;;3.45;2.20;;;12.60;97.90;;;;;;5035257;28;20040;-83
2021/05/31 06:15:53;;;;;;;4.85;2.33;;;12.60;97.40;;;;;;5035349;28;20029;-81
2021/05/31 06:18:19;;;;;;;4.50;2.58;;;12.70;98.30;;;;;;5035273;28;20116;-85
2021/05/31 06:20:45;;;;;;;2.60;2.40;;;12.80;98.40;;;;;;5035316;28;20427;-82
2021/05/31 06:23:11;;;;;;;3.28;2.60;;;13.00;98.40;;;;;;5035251;28;20112;-82
2021/05/31 06:25:37;;;;;;;3.58;2.38;;;13.10;98.30;;;;;;5035269;28;20021;-83
2021/05/31 06:28:05;;;;;;;4.00;3.33;;;13.10;98.30;;;;;;5035249;28;20436;-83
2021/05/31 06:30:31;;;;;;;6.28;2.70;;;13.30;98.40;;;;;;5035170;28;20068;-83
2021/05/31 06:32:57;;;;;;;4.22;2.28;;;13.30;97.60;;;;;;5036061;28;20481;-83
2021/05/31 06:35:25;;;;;;;7.55;2.70;;;13.40;98.10;;;;;;5035131;28;20033;-77
2021/05/31 06:37:51;;;;;;;6.28;2.50;;;13.70;97.70;;;;;;5035339;28;20056;-80
2021/05/31 06:40:17;;;;;;;4.63;2.67;;;13.70;97.80;;;;;;5033877;28;20117;-81
2021/05/31 06:42:44;;;;;;;3.33;2.60;;;13.90;98.20;;;;;;5036017;28;20419;-81
2021/05/31 06:45:16;;;;;;;4.05;2.30;;;14.00;97.60;;;;;;5033795;28;20029;-81
2021/05/31 06:47:41;;;;;;;5.25;2.30;;;14.40;98.90;;;;;;5034570;28;20017;-80
2021/05/31 06:50:08;;;;;;;4.95;2.40;;;15.10;96.70;;;;;;5035551;28;20026;-84
2021/05/31 06:52:34;;;;;;;4.22;2.17;;;15.20;95.90;;;;;;5034594;28;20669;-82
2021/05/31 06:55:00;;;;;;;4.63;2.38;;;15.40;95.90;;;;;;5034200;28;20045;-82
2021/05/31 06:57:26;;;;;;;2.58;2.38;;;15.70;95.30;;;;;;5035553;28;20028;-84
2021/05/31 06:59:51;;;;;;;3.78;2.20;;;15.90;94.50;;;;;;5035610;28;20029;-84
2021/05/31 07:02:18;;;;;;;3.58;2.58;;;16.10;94.30;;;;;;5035292;28;20384;-84
2021/05/31 07:04:43;;;;;;;4.35;2.28;;;16.40;93.60;;;;;;5034038;28;20120;-82
2021/05/31 07:07:09;;;;;;;5.60;2.60;;;16.60;93.50;;;;;;5035528;28;20068;-82
2021/05/31 07:09:35;;;;;;;4.63;2.63;;;16.70;92.80;;;;;;5035578;28;20034;-79
2021/05/31 07:12:01;;;;;;;3.85;2.33;;;16.80;92.20;;;;;;5035313;28;20029;-83
2021/05/31 07:14:34;;;;;;;3.35;2.30;;;17.00;91.80;;;;;;5035415;28;20183;-79
2021/05/31 07:17:01;;;;;;;3.08;2.22;;;17.00;90.20;;;;;;5035645;28;20033;-78
2021/05/31 07:19:27;;;;;;;4.32;2.08;;;17.00;90.60;;;;;;5034013;28;20067;-81
2021/05/31 07:21:54;;;;;;;4.63;1.85;;;17.10;89.20;;;;;;5035129;28;20024;-82
2021/05/31 07:24:20;;;;;;;3.08;1.63;;;17.20;87.50;;;;;;5034431;28;20022;-84
2021/05/31 07:26:46;;;;;;;4.28;1.60;;;17.20;87.90;;;;;;5035742;28;20032;-83
2021/05/31 07:29:11;;;;;;;5.32;1.50;;;17.30;85.20;;;;;;5037729;28;20492;-84
2021/05/31 07:31:37;;;;;;;2.67;1.60;;;17.40;85.60;;;;;;5037570;28;20060;-83
2021/05/31 07:34:04;;;;;;;2.47;1.50;;;17.40;84.90;;;;;;5037374;28;20523;-81
2021/05/31 07:36:29;;;;;;;5.50;1.40;;;17.50;83.30;;;;;;5037167;28;20032;-83
2021/05/31 07:38:56;;;;;;;4.20;1.33;;;17.50;82.10;;;;;;5037906;28;20451;-82
2021/05/31 07:41:22;;;;;;;2.25;1.52;;;17.20;83.20;;;;;;5037486;28;20109;-83
2021/05/31 07:43:47;;;;;;;4.13;1.40;;;17.30;83.10;;;;;;5037427;28;20067;-82
2021/05/31 07:46:14;;;;;;;2.83;1.50;;;17.40;83.60;;;;;;5037327;28;20028;-82
2021/05/31 07:48:43;;;;;;;2.78;1.27;;;17.40;83.70;;;;;;5037131;28;20032;-83
2021/05/31 07:51:19;;;;;;;1.55;1.30;;;17.50;83.50;;;;;;5055749;28;20035;-82
2021/05/31 07:53:48;;;;;;;3.42;1.40;;;17.50;81.80;;;;;;5038092;28;20120;-81
2021/05/31 07:56:14;;;;;;;3.13;1.50;;;17.50;82.00;;;;;;5038090;28;20052;-82
2021/05/31 07:58:41;;;;;;;2.22;1.30;;;17.50;82.70;;;;;;5037650;28;20021;-84
2021/05/31 08:01:07;;;;;;;2.22;1.23;;;17.60;81.10;;;;;;5040325;28;20078;-82
2021/05/31 08:03:33;;;;;;;3.03;1.40;;;17.60;79.10;;;;;;5037126;28;20017;-82
2021/05/31 08:05:59;;;;;;;5.40;1.63;;;17.70;79.80;;;;;;5037014;28;20036;-83
2021/05/31 08:08:26;;;;;;;1.45;1.00;;;17.90;78.60;;;;;;5036245;28;20032;-81
2021/05/31 08:10:51;;;;;;;3.95;1.15;;;18.10;75.80;;;;;;5054471;28;20028;-83
2021/05/31 08:13:17;;;;;;;1.35;1.10;;;17.90;71.60;;;;;;5054435;28;20046;-84
2021/05/31 08:15:43;;;;;;;3.58;1.40;;;17.80;73.50;;;;;;5036453;28;20036;-83
2021/05/31 08:18:10;;;;;;;2.13;1.30;;;17.90;73.60;;;;;;5036855;28;20106;-83
2021/05/31 08:20:35;;;;;;;1.80;1.13;;;17.80;72.50;;;;;;5037128;28;20017;-84
2021/05/31 08:23:01;;;;;;;1.63;1.10;;;17.80;71.30;;;;;;5036572;28;20036;-82
2021/05/31 08:25:27;;;;;;;1.70;1.10;;;17.70;70.80;;;;;;5036517;28;20065;-83
2021/05/31 08:27:53;;;;;;;2.45;1.00;;;17.80;72.60;;;;;;5036431;28;20124;-83
2021/05/31 08:30:19;;;;;;;1.80;1.10;;;18.00;71.10;;;;;;5035053;28;20050;-81
2021/05/31 08:32:45;;;;;;;1.33;1.02;;;18.10;71.40;;;;;;5033976;28;20036;-83
2021/05/31 08:35:10;;;;;;;1.98;1.30;;;18.30;69.70;;;;;;5032843;28;20033;-82
2021/05/31 08:37:36;;;;;;;2.42;1.30;;;18.30;70.30;;;;;;5033089;28;20018;-81
2021/05/31 08:40:04;;;;;;;3.45;1.40;;;18.40;68.20;;;;;;5032568;28;20092;-82
2021/05/31 08:42:30;;;;;;;2.22;1.17;;;18.60;69.00;;;;;;5033553;28;20030;-82
2021/05/31 08:44:56;;;;;;;1.67;1.15;;;18.70;68.50;;;;;;5036384;28;20072;-80
2021/05/31 08:47:24;;;;;;;3.47;1.30;;;18.90;67.70;;;;;;5032605;28;20025;-81
2021/05/31 08:49:50;;;;;;;3.75;2.47;;;18.80;64.10;;;;;;5031739;28;20025;-82
2021/05/31 08:52:16;;;;;;;4.40;1.30;;;18.80;63.70;;;;;;5035512;28;20029;-81
2021/05/31 08:54:41;;;;;;;2.70;1.00;;;18.60;62.10;;;;;;5033881;28;20124;-83
2021/05/31 08:57:07;;;;;;;2.75;1.00;;;18.50;65.80;;;;;;5033569;28;20025;-81
2021/05/31 08:59:33;;;;;;;3.83;2.40;;;18.40;63.00;;;;;;5031804;28;20037;-82
2021/05/31 09:01:58;;;;;;;3.90;1.63;;;18.20;64.40;;;;;;5032248;28;20022;-84
2021/05/31 09:04:24;;;;;;;4.18;3.45;;;18.30;64.20;;;;;;5032167;28;20030;-86
2021/05/31 09:06:57;;;;;;;2.83;1.27;;;18.40;64.40;;;;;;5032649;28;20048;-85
2021/05/31 09:09:43;;;;;;;3.75;1.17;;;18.30;65.60;;;;;;5032762;28;20105;-84
2021/05/31 09:12:10;;;;;;;10.35;8.45;;;18.40;63.80;;;;;;5033903;28;20100;-83
2021/05/31 09:14:37;;;;;;;2.70;2.28;;;18.60;65.50;;;;;;5032665;28;20210;-85
2021/05/31 09:17:03;;;;;;;2.97;1.13;;;18.70;62.30;;;;;;5032763;28;20028;-83
2021/05/31 09:19:29;;;;;;;1.40;0.80;;;18.80;63.00;;;;;;5032569;28;20400;-82
2021/05/31 09:21:55;;;;;;;2.05;1.17;;;18.60;59.30;;;;;;5032940;28;20055;-82
2021/05/31 09:24:24;;;;;;;2.33;1.10;;;18.50;60.10;;;;;;5032713;28;20030;-83
2021/05/31 09:27:00;;;;;;;3.15;0.93;;;18.60;61.90;;;;;;5033579;28;20076;-84
2021/05/31 09:29:26;;;;;;;3.03;1.25;;;18.60;62.20;;;;;;5035699;28;20041;-83
2021/05/31 09:32:04;;;;;;;4.80;0.93;;;18.50;63.30;;;;;;5036008;28;20020;-81
2021/05/31 09:34:31;;;;;;;1.40;0.88;;;19.00;62.60;;;;;;5035846;28;20079;-81
2021/05/31 09:37:01;;;;;;;2.88;0.90;;;19.00;59.50;;;;;;5036063;28;20020;-84
2021/05/31 09:39:31;;;;;;;2.35;1.10;;;18.90;57.30;;;;;;5036228;28;20039;-83
2021/05/31 09:42:16;;;;;;;1.23;0.80;;;18.60;57.80;;;;;;5053767;28;20033;-83
2021/05/31 09:44:44;;;;;;;1.98;0.90;;;18.50;56.10;;;;;;5036043;28;20088;-88
2021/05/31 09:47:10;;;;;;;1.60;0.90;;;18.60;57.10;;;;;;5038647;28;20033;-83
2021/05/31 09:49:37;;;;;;;2.03;0.90;;;18.60;60.00;;;;;;5035681;28;20059;-86
2021/05/31 09:52:06;;;;;;;2.75;1.08;;;18.70;58.40;;;;;;5036105;28;20477;-84
2021/05/31 09:55:01;;;;;;;2.70;0.90;;;18.50;57.20;;;;;;5035756;28;20140;-86
2021/05/31 09:57:27;;;;;;;2.42;1.00;;;18.40;56.20;;;;;;5033057;28;20040;-85
2021/05/31 10:00:01;;;;;;;1.77;0.98;;;18.30;57.50;;;;;;5035881;28;20029;-84
2021/05/31 10:05:26;;;;;;;1.63;1.00;;;18.20;60.40;;;;;;5053374;28;20420;-86
2021/05/31 10:07:57;;;;;;;2.13;0.93;;;18.20;58.20;;;;;;5035702;28;20025;-85
2021/05/31 10:10:23;;;;;;;2.05;0.90;;;18.10;58.30;;;;;;5035733;28;20029;-85
2021/05/31 10:12:50;;;;;;;1.92;0.90;;;18.10;60.30;;;;;;5035705;28;20033;-85
2021/05/31 10:15:24;;;;;;;3.08;1.35;;;18.10;59.40;;;;;;5036408;28;20044;-85
2021/05/31 10:17:53;;;;;;;1.60;1.00;;;18.20;59.90;;;;;;5057004;28;20064;-85
2021/05/31 10:20:20;;;;;;;1.83;0.90;;;18.10;59.40;;;;;;5039770;28;20457;-84
2021/05/31 10:22:46;;;;;;;1.40;1.00;;;18.30;58.50;;;;;;5056842;28;20155;-83
2021/05/31 10:25:14;;;;;;;2.17;0.90;;;18.30;59.10;;;;;;5039287;28;20388;-86
2021/05/31 10:27:41;;;;;;;1.98;0.80;;;18.40;57.80;;;;;;5039073;28;20048;-84
2021/05/31 10:30:09;;;;;;;1.42;0.93;;;18.40;57.60;;;;;;5038760;28;20045;-84
2021/05/31 10:32:35;;;;;;;2.00;1.00;;;18.40;57.20;;;;;;5039052;28;20025;-85
2021/05/31 10:35:01;;;;;;;3.58;1.10;;;18.50;58.70;;;;;;5038850;28;20498;-85
2021/05/31 10:37:29;;;;;;;2.17;0.75;;;18.50;57.30;;;;;;5038922;28;20033;-84
2021/05/31 10:39:58;;;;;;;1.13;0.93;;;18.60;57.90;;;;;;5038509;28;20060;-83
2021/05/31 10:42:37;;;;;;;1.13;0.90;;;18.70;60.10;;;;;;5038840;28;20144;-85
2021/05/31 10:45:19;;;;;;;3.65;1.20;;;18.70;59.20;;;;;;5056448;28;20528;-84
2021/05/31 10:47:56;;;;;;;1.95;1.30;;;18.80;58.40;;;;;;5038825;28;20024;-86
2021/05/31 10:50:37;;;;;;;2.92;1.20;;;18.80;60.20;;;;;;5039001;28;20055;-84
2021/05/31 10:53:06;;;;;;;2.05;1.20;;;18.70;58.70;;;;;;5038528;28;20419;-85
2021/05/31 10:55:32;;;;;;;2.45;1.15;;;18.70;60.10;;;;;;5038759;28;20025;-88
2021/05/31 10:57:59;;;;;;;4.97;1.30;;;18.70;58.20;;;;;;5038641;28;20357;-84
2021/05/31 11:00:32;;;;;;;2.55;1.00;;;18.70;57.00;;;;;;5056342;28;20025;-85
2021/05/31 11:03:09;;;;;;;2.35;1.10;;;18.60;56.00;;;;;;5038687;28;20055;-85
2021/05/31 11:05:36;;;;;;;2.47;1.05;;;18.60;57.80;;;;;;5038509;28;20028;-87
2021/05/31 11:08:04;;;;;;;1.73;0.93;;;18.70;57.30;;;;;;5038486;28;20049;-86
2021/05/31 11:10:32;;;;;;;3.47;1.10;;;18.70;55.80;;;;;;5038307;28;20119;-84
2021/05/31 11:13:16;;;;;;;3.10;0.95;;;18.70;55.00;;;;;;5038127;28;20025;-85
2021/05/31 11:15:43;;;;;;;3.35;1.80;;;18.70;53.70;;;;;;5038177;28;20059;-88
2021/05/31 11:18:20;;;;;;;4.60;1.20;;;18.70;56.50;;;;;;5038120;28;20422;-82
2021/05/31 11:20:46;;;;;;;2.05;1.00;;;18.70;56.20;;;;;;5038109;28;20029;-83
2021/05/31 11:23:11;;;;;;;3.55;1.30;;;18.80;56.30;;;;;;5037873;28;20029;-83
2021/05/31 11:25:37;;;;;;;2.08;1.05;;;18.80;56.70;;;;;;5037935;28;20044;-85
2021/05/31 11:28:05;;;;;;;2.38;0.93;;;19.20;55.70;;;;;;5037702;28;20028;-84
2021/05/31 11:30:33;;;;;;;1.92;0.90;;;19.50;55.50;;;;;;5037563;28;20056;-83
2021/05/31 11:33:03;;;;;;;1.70;1.02;;;19.70;54.30;;;;;;5037769;28;20135;-84
2021/05/31 11:35:30;;;;;;;2.20;1.00;;;19.70;53.00;;;;;;5037576;28;20022;-84
2021/05/31 11:37:58;;;;;;;2.72;1.17;;;19.60;52.70;;;;;;5037887;28;20032;-85
2021/05/31 11:40:25;;;;;;;2.33;0.70;;;19.70;53.20;;;;;;5037566;28;20457;-84
2021/05/31 11:42:54;;;;;;;3.35;0.80;;;19.60;50.90;;;;;;5037582;28;20116;-84
2021/05/31 11:45:21;;;;;;;1.25;0.82;;;19.50;55.10;;;;;;5037588;28;20060;-84
2021/05/31 11:47:57;;;;;;;1.15;0.82;;;19.40;54.30;;;;;;5037564;28;20492;-86
2021/05/31 11:50:24;;;;;;;2.35;0.80;;;19.50;53.90;;;;;;5037491;28;20113;-84
2021/05/31 11:52:50;;;;;;;2.65;1.13;;;19.50;55.10;;;;;;5037579;28;20029;-84
2021/05/31 11:55:27;;;;;;;3.80;1.70;;;19.50;55.20;;;;;;5037458;28;20025;-85
2021/05/31 11:57:53;;;;;;;7.53;2.50;;;19.50;54.20;;;;;;5037359;28;20025;-85
2021/05/31 12:00:27;;;;;;;9.75;1.70;;;19.40;55.60;;;;;;5037266;28;20028;-86
2021/05/31 12:02:54;;;;;;;2.28;1.20;;;19.50;56.50;;;;;;5037366;28;20025;-84
2021/05/31 12:05:46;;;;;;;2.38;1.10;;;19.40;56.60;;;;;;5037332;28;20151;-85
2021/05/31 12:08:14;;;;;;;3.08;1.50;;;19.30;54.20;;;;;;5032934;28;20374;-85
2021/05/31 12:10:45;;;;;;;3.95;1.38;;;19.20;55.20;;;;;;5055021;28;20021;-84
2021/05/31 12:13:11;;;;;;;4.30;1.50;;;19.30;56.10;;;;;;5037261;28;20255;-85
2021/05/31 12:15:38;;;;;;;3.42;1.35;;;19.50;55.30;;;;;;5037273;28;20025;-85
2021/05/31 12:18:19;;;;;;;2.28;1.10;;;19.50;54.30;;;;;;5037244;28;20044;-86
2021/05/31 12:20:45;;;;;;;4.43;1.60;;;19.20;54.10;;;;;;5037101;28;20029;-84
2021/05/31 12:23:22;;;;;;;3.33;1.20;;;19.10;54.40;;;;;;5037150;28;20036;-85
2021/05/31 12:25:50;;;;;;;2.78;1.30;;;19.20;56.50;;;;;;5036951;28;20032;-83
2021/05/31 12:28:17;;;;;;;3.63;1.08;;;19.20;55.50;;;;;;5036525;28;20078;-84
2021/05/31 12:30:47;;;;;;;3.33;1.10;;;19.00;56.00;;;;;;5036543;28;20048;-85
2021/05/31 12:33:13;;;;;;;3.40;1.10;;;19.00;55.90;;;;;;5036670;28;20086;-85
2021/05/31 12:35:41;;;;;;;1.88;0.82;;;19.00;56.00;;;;;;5036642;28;20094;-84
2021/05/31 12:38:07;;;;;;;4.53;1.13;;;19.00;55.40;;;;;;5036210;28;20025;-83
2021/05/31 12:40:38;;;;;;;2.05;0.93;;;19.00;56.90;;;;;;5036743;28;20098;-85
2021/05/31 12:43:05;;;;;;;1.85;1.10;;;18.90;56.10;;;;;;5036449;28;20025;-85
2021/05/31 12:45:31;;;;;;;2.40;1.08;;;19.00;58.60;;;;;;5036503;28;20021;-84
2021/05/31 12:47:57;;;;;;;2.08;1.10;;;19.10;56.30;;;;;;5036512;28;20116;-85
2021/05/31 12:50:29;;;;;;;2.63;0.90;;;19.20;56.00;;;;;;5036123;28;20067;-83
2021/05/31 12:52:55;;;;;;;1.00;0.80;;;19.20;56.10;;;;;;5036353;28;20471;-86
2021/05/31 12:55:27;;;;;;;1.77;0.82;;;19.30;53.90;;;;;;5036399;28;20040;-84
2021/05/31 12:57:54;;;;;;;3.83;1.05;;;19.30;53.30;;;;;;5036327;28;20025;-86
2021/05/31 13:00:30;;;;;;;3.40;0.90;;;19.50;54.20;;;;;;5036224;28;20029;-83
2021/05/31 13:02:59;;;;;;;7.45;1.30;;;19.70;54.00;;;;;;5036311;28;20056;-83
2021/05/31 13:05:28;;;;;;;0.90;0.68;;;19.80;54.10;;;;;;5036336;28;20385;-82
2021/05/31 13:07:56;;;;;;;1.38;0.90;;;19.80;52.60;;;;;;5036283;28;20120;-83
2021/05/31 13:10:24;;;;;;;1.60;0.88;;;19.90;50.80;;;;;;5035934;28;20017;-85